createdAt,value
2018-12-18T00:01:00.824Z,90.40
2018-12-18T00:03:28.283Z,90.40
2018-12-18T00:05:55.763Z,90.30
2018-12-18T00:08:23.213Z,90.30
2018-12-18T00:10:52.689Z,90.30
2018-12-18T00:13:20.171Z,90.30
2018-12-18T00:15:47.731Z,90.30
2018-12-18T00:18:15.188Z,90.20
2018-12-18T00:20:42.653Z,90.20
2018-12-18T00:23:10.098Z,90.20
2018-12-18T00:25:37.547Z,90.20
2018-12-18T00:28:05.019Z,90.20
2018-12-18T00:30:32.486Z,90.20
2018-12-18T00:32:59.974Z,90.20
2018-12-18T00:35:27.434Z,90.20
2018-12-18T00:37:54.899Z,90.20
2018-12-18T00:40:22.519Z,90.20
2018-12-18T00:42:49.999Z,90.20
2018-12-18T00:45:17.438Z,90.10
2018-12-18T00:47:44.993Z,90.10
2018-12-18T00:50:12.462Z,90.10
2018-12-18T00:52:39.962Z,90.10
2018-12-18T00:55:07.958Z,90.10
2018-12-18T00:57:35.522Z,90.10
2018-12-18T01:00:04.830Z,90.10
2018-12-18T01:02:32.293Z,90.10
2018-12-18T01:04:59.749Z,90.10
2018-12-18T01:07:27.237Z,90.20
2018-12-18T01:09:54.687Z,90.20
2018-12-18T01:12:22.165Z,90.20
2018-12-18T01:14:49.614Z,90.20
2018-12-18T01:17:17.085Z,90.20
2018-12-18T01:19:44.544Z,90.20
2018-12-18T01:22:12.144Z,90.30
2018-12-18T01:24:39.599Z,90.30
2018-12-18T01:27:07.125Z,90.30
2018-12-18T01:29:34.601Z,90.30
2018-12-18T01:32:02.053Z,90.30
2018-12-18T01:34:29.531Z,90.20
2018-12-18T01:36:56.994Z,90.30
2018-12-18T01:39:24.643Z,90.30
2018-12-18T01:41:52.682Z,90.30
2018-12-18T01:44:20.248Z,90.30
2018-12-18T01:46:47.776Z,90.30
2018-12-18T01:49:15.346Z,90.30
2018-12-18T01:51:42.840Z,90.30
2018-12-18T01:54:10.305Z,90.30
2018-12-18T01:56:37.798Z,90.30
2018-12-18T01:59:05.243Z,90.30
2018-12-18T02:01:32.707Z,90.30
2018-12-18T02:04:05.964Z,90.40
2018-12-18T02:06:29.803Z,90.40
2018-12-18T02:08:57.250Z,90.40
2018-12-18T02:11:25.021Z,90.40
2018-12-18T02:13:52.466Z,90.40
2018-12-18T02:16:19.946Z,90.40
2018-12-18T02:18:47.405Z,90.40
2018-12-18T02:21:14.877Z,90.40
2018-12-18T02:23:42.337Z,90.40
2018-12-18T02:26:09.834Z,90.40
2018-12-18T02:28:37.294Z,90.40
2018-12-18T02:31:04.778Z,90.40
2018-12-18T02:33:32.218Z,90.40
2018-12-18T02:35:59.690Z,90.40
2018-12-18T02:38:27.145Z,90.40
2018-12-18T02:40:54.627Z,90.40
2018-12-18T02:43:22.070Z,90.40
2018-12-18T02:45:49.545Z,90.40
2018-12-18T02:48:17.687Z,90.40
2018-12-18T02:50:45.165Z,90.40
2018-12-18T02:53:12.726Z,90.50
2018-12-18T02:55:40.206Z,90.50
2018-12-18T02:58:07.673Z,90.50
2018-12-18T03:00:35.138Z,90.50
2018-12-18T03:03:02.638Z,90.50
2018-12-18T03:05:30.096Z,90.50
2018-12-18T03:07:57.573Z,90.50
2018-12-18T03:10:25.025Z,90.50
2018-12-18T03:12:52.714Z,90.50
2018-12-18T03:15:20.266Z,90.50
2018-12-18T03:17:47.717Z,90.50
2018-12-18T03:20:15.180Z,90.50
2018-12-18T03:22:42.646Z,90.40
2018-12-18T03:25:10.098Z,90.40
2018-12-18T03:27:37.556Z,90.40
2018-12-18T03:30:05.715Z,90.40
2018-12-18T03:32:34.250Z,90.40
2018-12-18T03:35:01.801Z,90.40
2018-12-18T03:37:29.326Z,90.40
2018-12-18T03:39:57.594Z,90.40
2018-12-18T03:42:25.038Z,90.40
2018-12-18T03:44:52.511Z,90.40
2018-12-18T03:47:19.980Z,90.40
2018-12-18T03:49:47.441Z,90.40
2018-12-18T03:52:14.890Z,90.40
2018-12-18T03:54:42.353Z,90.40
2018-12-18T03:57:09.818Z,90.40
2018-12-18T03:59:37.342Z,90.40
2018-12-18T04:02:04.799Z,90.40
2018-12-18T04:04:35.604Z,90.40
2018-12-18T04:07:01.726Z,90.30
2018-12-18T04:09:29.193Z,90.30
2018-12-18T04:12:02.269Z,90.30
2018-12-18T04:14:29.831Z,90.30
2018-12-18T04:16:57.293Z,90.40
2018-12-18T04:19:24.849Z,90.30
2018-12-18T04:21:52.378Z,90.40
2018-12-18T04:24:19.951Z,90.30
2018-12-18T04:26:47.517Z,90.30
2018-12-18T04:29:14.993Z,90.30
2018-12-18T04:31:42.541Z,90.30
2018-12-18T04:34:10.018Z,90.30
2018-12-18T04:36:37.471Z,90.30
2018-12-18T04:39:05.856Z,90.30
2018-12-18T04:41:33.419Z,90.30
2018-12-18T04:44:00.866Z,90.20
2018-12-18T04:46:28.338Z,90.30
2018-12-18T04:48:55.800Z,90.30
2018-12-18T04:51:23.258Z,90.30
2018-12-18T04:53:50.714Z,90.30
2018-12-18T04:56:18.179Z,90.30
2018-12-18T04:58:45.632Z,90.20
2018-12-18T05:01:13.114Z,90.30
2018-12-18T05:03:40.561Z,90.30
2018-12-18T05:06:08.058Z,90.30
2018-12-18T05:08:35.507Z,90.30
2018-12-18T05:11:03.069Z,90.20
2018-12-18T05:13:30.627Z,90.20
2018-12-18T05:15:58.097Z,90.20
2018-12-18T05:18:25.560Z,90.10
2018-12-18T05:20:53.020Z,90.20
2018-12-18T05:23:21.117Z,90.20
2018-12-18T05:25:48.563Z,90.20
2018-12-18T05:28:16.332Z,90.20
2018-12-18T05:30:43.873Z,90.20
2018-12-18T05:33:11.346Z,90.10
2018-12-18T05:35:38.793Z,90.10
2018-12-18T05:38:06.267Z,90.10
2018-12-18T05:40:33.773Z,90.10
2018-12-18T05:43:01.238Z,90.10
2018-12-18T05:45:28.692Z,90.10
2018-12-18T05:47:56.157Z,90.10
2018-12-18T05:50:23.606Z,90.00
2018-12-18T05:52:51.065Z,89.90
2018-12-18T05:55:18.537Z,89.80
2018-12-18T05:57:45.997Z,89.90
2018-12-18T06:00:13.471Z,89.80
2018-12-18T06:02:40.920Z,89.90
2018-12-18T06:05:08.406Z,90.00
2018-12-18T06:07:35.846Z,90.00
2018-12-18T06:10:03.763Z,90.00
2018-12-18T06:12:31.247Z,90.00
2018-12-18T06:14:58.751Z,90.00
2018-12-18T06:17:26.226Z,90.00
2018-12-18T06:19:53.701Z,90.00
2018-12-18T06:22:21.198Z,90.00
2018-12-18T06:24:49.410Z,90.00
2018-12-18T06:27:16.927Z,90.00
2018-12-18T06:29:44.366Z,89.80
2018-12-18T06:32:11.823Z,89.80
2018-12-18T06:34:39.329Z,89.70
2018-12-18T06:37:06.799Z,89.80
2018-12-18T06:39:34.353Z,89.80
2018-12-18T06:42:01.878Z,89.80
2018-12-18T06:44:29.358Z,89.70
2018-12-18T06:46:56.823Z,89.70
2018-12-18T06:49:24.332Z,89.60
2018-12-18T06:51:51.806Z,89.40
2018-12-18T06:54:19.350Z,89.40
2018-12-18T06:56:46.823Z,89.40
2018-12-18T06:59:14.785Z,89.50
2018-12-18T07:01:42.263Z,89.50
2018-12-18T07:04:09.725Z,89.50
2018-12-18T07:06:37.437Z,89.60
2018-12-18T07:09:07.386Z,89.70
2018-12-18T07:11:34.865Z,89.70
2018-12-18T07:14:02.394Z,89.50
2018-12-18T07:16:29.869Z,89.60
2018-12-18T07:18:57.387Z,89.50
2018-12-18T07:21:24.861Z,89.40
2018-12-18T07:23:52.316Z,89.50
2018-12-18T07:26:19.791Z,89.50
2018-12-18T07:28:47.237Z,89.50
2018-12-18T07:31:14.714Z,89.30
2018-12-18T07:33:42.187Z,89.40
2018-12-18T07:36:09.678Z,89.40
2018-12-18T07:38:37.149Z,89.40
2018-12-18T07:41:04.594Z,89.30
2018-12-18T07:43:32.085Z,89.20
2018-12-18T07:45:59.534Z,89.20
2018-12-18T07:48:27.009Z,89.30
2018-12-18T07:50:54.470Z,89.30
2018-12-18T07:53:21.956Z,89.30
2018-12-18T07:55:49.410Z,89.40
2018-12-18T07:58:16.994Z,89.30
2018-12-18T08:00:44.455Z,88.90
2018-12-18T08:03:12.213Z,89.00
2018-12-18T08:05:39.662Z,88.90
2018-12-18T08:08:07.180Z,89.20
2018-12-18T08:10:34.643Z,89.20
2018-12-18T08:13:02.098Z,89.10
2018-12-18T08:15:29.629Z,89.10
2018-12-18T08:17:57.078Z,88.80
2018-12-18T08:20:24.554Z,88.90
2018-12-18T08:22:52.694Z,89.00
2018-12-18T08:25:20.142Z,88.90
2018-12-18T08:27:47.631Z,89.10
2018-12-18T08:30:15.105Z,89.10
2018-12-18T08:32:42.561Z,89.10
2018-12-18T08:35:10.049Z,89.10
2018-12-18T08:37:37.525Z,88.60
2018-12-18T08:40:06.638Z,88.50
2018-12-18T08:42:34.100Z,88.70
2018-12-18T08:45:01.570Z,88.80
2018-12-18T08:47:29.034Z,88.60
2018-12-18T08:49:56.503Z,88.80
2018-12-18T08:52:23.959Z,88.30
2018-12-18T08:54:51.448Z,88.40
2018-12-18T08:57:18.937Z,88.40
2018-12-18T08:59:46.414Z,88.50
2018-12-18T09:02:13.936Z,88.50
2018-12-18T09:04:41.447Z,87.90
2018-12-18T09:07:09.090Z,87.30
2018-12-18T09:09:36.548Z,87.70
2018-12-18T09:12:04.081Z,87.30
2018-12-18T09:14:31.545Z,87.20
2018-12-18T09:17:02.244Z,87.30
2018-12-18T09:19:29.841Z,87.10
2018-12-18T09:21:57.313Z,87.30
2018-12-18T09:24:24.765Z,86.70
2018-12-18T09:26:52.252Z,86.60
2018-12-18T09:29:19.702Z,86.70
2018-12-18T09:31:47.245Z,86.60
2018-12-18T09:34:14.717Z,86.50
2018-12-18T09:36:42.188Z,86.40
2018-12-18T09:39:18.569Z,85.90
2018-12-18T09:41:46.636Z,85.50
2018-12-18T09:44:17.105Z,85.00
2018-12-18T09:46:44.695Z,84.90
2018-12-18T09:49:12.150Z,84.80
2018-12-18T09:51:39.606Z,84.60
2018-12-18T09:54:07.173Z,83.50
2018-12-18T09:56:36.598Z,83.50
2018-12-18T09:59:04.082Z,82.00
2018-12-18T10:01:31.546Z,81.10
2018-12-18T10:03:58.996Z,80.30
2018-12-18T10:06:26.458Z,80.00
2018-12-18T10:08:54.006Z,79.90
2018-12-18T10:11:22.346Z,80.80
2018-12-18T10:13:49.805Z,80.90
2018-12-18T10:16:17.323Z,80.70
2018-12-18T10:18:44.825Z,80.70
2018-12-18T10:21:12.824Z,81.10
2018-12-18T10:23:40.296Z,81.30
2018-12-18T10:26:07.766Z,82.00
2018-12-18T10:28:35.245Z,82.00
2018-12-18T10:31:02.708Z,82.80
2018-12-18T10:33:30.192Z,83.30
2018-12-18T10:36:03.030Z,83.60
2018-12-18T10:38:27.326Z,84.00
2018-12-18T10:40:55.481Z,84.60
2018-12-18T10:43:22.938Z,85.20
2018-12-18T10:45:50.410Z,86.00
2018-12-18T10:48:17.869Z,86.40
2018-12-18T10:50:45.334Z,86.40
2018-12-18T10:53:12.815Z,86.00
2018-12-18T10:55:40.525Z,85.10
2018-12-18T10:58:08.557Z,84.90
2018-12-18T11:00:41.635Z,86.00
2018-12-18T11:03:09.088Z,86.40
2018-12-18T11:05:36.680Z,86.80
2018-12-18T11:08:04.149Z,86.90
2018-12-18T11:10:31.623Z,87.00
2018-12-18T11:13:04.857Z,87.30
2018-12-18T11:15:32.319Z,87.10
2018-12-18T11:17:59.769Z,87.00
2018-12-18T11:20:27.243Z,87.40
2018-12-18T11:22:54.718Z,87.30
2018-12-18T11:25:22.589Z,87.00
2018-12-18T11:27:50.485Z,86.60
2018-12-18T11:30:17.968Z,86.70
2018-12-18T11:32:45.439Z,87.20
2018-12-18T11:35:12.905Z,87.30
2018-12-18T11:37:40.389Z,87.50
2018-12-18T11:40:08.494Z,87.70
2018-12-18T11:42:36.035Z,88.10
2018-12-18T11:45:03.929Z,88.20
2018-12-18T11:47:31.603Z,88.00
2018-12-18T11:49:59.064Z,87.90
2018-12-18T11:52:26.547Z,87.90
2018-12-18T11:54:54.002Z,87.60
2018-12-18T11:57:21.530Z,87.40
2018-12-18T11:59:48.961Z,87.30
2018-12-18T12:02:16.431Z,86.80
2018-12-18T12:04:43.875Z,86.50
2018-12-18T12:07:11.347Z,86.20
2018-12-18T12:09:38.814Z,86.50
2018-12-18T12:12:06.291Z,86.50
2018-12-18T12:14:33.739Z,86.10
2018-12-18T12:17:01.632Z,86.00
2018-12-18T12:19:29.322Z,86.00
2018-12-18T12:21:56.769Z,85.80
2018-12-18T12:24:24.234Z,85.90
2018-12-18T12:26:53.776Z,85.70
2018-12-18T12:29:21.265Z,85.50
2018-12-18T12:31:48.728Z,85.40
2018-12-18T12:34:16.192Z,85.10
2018-12-18T12:36:43.667Z,84.40
2018-12-18T12:39:11.144Z,84.40
2018-12-18T12:41:38.606Z,84.40
2018-12-18T12:44:06.054Z,84.60
2018-12-18T12:46:33.529Z,84.10
2018-12-18T12:49:02.949Z,84.40
2018-12-18T12:51:30.446Z,85.30
2018-12-18T12:53:57.906Z,85.40
2018-12-18T12:56:25.358Z,85.60
2018-12-18T12:58:52.864Z,85.60
2018-12-18T13:01:20.384Z,85.60
2018-12-18T13:03:47.875Z,85.40
2018-12-18T13:06:15.395Z,85.00
2018-12-18T13:08:42.846Z,86.20
2018-12-18T13:11:10.319Z,86.50
2018-12-18T13:13:37.846Z,86.60
2018-12-18T13:16:05.325Z,86.70
2018-12-18T13:18:32.789Z,85.90
2018-12-18T13:21:00.248Z,85.10
2018-12-18T13:23:27.712Z,84.40
2018-12-18T13:25:55.188Z,84.30
2018-12-18T13:28:22.728Z,84.20
2018-12-18T13:30:50.204Z,84.40
2018-12-18T13:33:17.668Z,83.70
2018-12-18T13:35:45.149Z,83.50
2018-12-18T13:38:12.699Z,82.70
2018-12-18T13:40:40.145Z,83.20
2018-12-18T13:43:07.635Z,83.40
2018-12-18T13:45:35.074Z,83.60
2018-12-18T13:48:02.555Z,83.50
2018-12-18T13:50:30.006Z,83.20
2018-12-18T13:52:57.485Z,83.50
2018-12-18T13:55:24.931Z,82.80
2018-12-18T13:57:52.419Z,83.50
2018-12-18T14:00:19.942Z,83.70
2018-12-18T14:02:47.467Z,83.60
2018-12-18T14:05:15.120Z,83.80
2018-12-18T14:07:42.594Z,84.20
2018-12-18T14:10:10.149Z,84.50
2018-12-18T14:12:37.616Z,84.50
2018-12-18T14:15:05.241Z,84.40
2018-12-18T14:17:32.706Z,84.10
2018-12-18T14:20:00.164Z,84.00
2018-12-18T14:22:27.729Z,84.00
2018-12-18T14:24:55.232Z,84.10
2018-12-18T14:27:22.798Z,84.30
2018-12-18T14:29:50.264Z,84.40
2018-12-18T14:32:17.761Z,84.90
2018-12-18T14:34:45.274Z,85.30
2018-12-18T14:37:12.786Z,85.40
2018-12-18T14:39:40.336Z,85.90
2018-12-18T14:42:07.878Z,86.10
2018-12-18T14:44:35.350Z,86.30
2018-12-18T14:47:02.806Z,86.50
2018-12-18T14:49:30.284Z,86.80
2018-12-18T14:51:58.502Z,87.00
2018-12-18T14:54:26.392Z,87.00
2018-12-18T14:56:53.909Z,87.00
2018-12-18T14:59:21.652Z,87.40
2018-12-18T15:01:49.107Z,87.70
2018-12-18T15:04:16.585Z,87.90
2018-12-18T15:06:44.051Z,88.20
2018-12-18T15:09:11.563Z,88.40
2018-12-18T15:11:39.020Z,88.40
2018-12-18T15:14:06.475Z,88.50
2018-12-18T15:16:33.974Z,88.70
2018-12-18T15:19:01.441Z,88.80
2018-12-18T15:21:28.949Z,89.00
2018-12-18T15:23:56.407Z,89.20
2018-12-18T15:26:23.910Z,89.20
2018-12-18T15:28:51.392Z,89.30
2018-12-18T15:31:18.886Z,89.40
2018-12-18T15:33:46.334Z,89.40
2018-12-18T15:36:13.798Z,89.60
2018-12-18T15:38:41.277Z,89.70
2018-12-18T15:41:08.741Z,89.80
2018-12-18T15:43:36.186Z,89.80
2018-12-18T15:46:03.731Z,89.80
2018-12-18T15:48:31.182Z,90.00
2018-12-18T15:50:58.654Z,90.00
2018-12-18T15:53:26.139Z,90.00
2018-12-18T15:55:54.356Z,90.00
2018-12-18T15:58:21.829Z,90.00
2018-12-18T16:00:50.103Z,90.10
2018-12-18T16:03:17.602Z,90.10
2018-12-18T16:05:45.040Z,90.10
2018-12-18T16:08:12.696Z,90.10
2018-12-18T16:10:40.670Z,90.10
2018-12-18T16:13:09.065Z,90.20
2018-12-18T16:15:36.592Z,90.20
2018-12-18T16:18:04.090Z,90.20
2018-12-18T16:20:31.543Z,90.20
2018-12-18T16:22:59.027Z,90.20
2018-12-18T16:25:26.492Z,90.20
2018-12-18T16:27:53.967Z,90.30
2018-12-18T16:30:21.677Z,90.30
2018-12-18T16:32:49.153Z,90.30
2018-12-18T16:35:16.621Z,90.30
2018-12-18T16:37:44.090Z,90.30
2018-12-18T16:40:11.577Z,90.30
2018-12-18T16:42:39.045Z,90.30
2018-12-18T16:45:06.591Z,90.30
2018-12-18T16:47:34.041Z,90.40
2018-12-18T16:50:01.513Z,90.40
2018-12-18T16:52:28.996Z,90.40
2018-12-18T16:54:56.476Z,90.40
2018-12-18T16:57:23.924Z,90.40
2018-12-18T16:59:51.490Z,90.40
2018-12-18T17:02:19.124Z,90.40
2018-12-18T17:04:46.585Z,90.40
2018-12-18T17:07:14.052Z,90.40
2018-12-18T17:09:41.529Z,90.40
2018-12-18T17:12:08.973Z,90.40
2018-12-18T17:14:36.561Z,90.40
2018-12-18T17:17:04.034Z,90.40
2018-12-18T17:19:31.505Z,90.40
2018-12-18T17:21:58.967Z,90.40
2018-12-18T17:24:26.444Z,90.40
2018-12-18T17:26:53.903Z,90.40
2018-12-18T17:29:22.221Z,90.40
2018-12-18T17:31:49.775Z,90.40
2018-12-18T17:34:17.258Z,90.40
2018-12-18T17:36:44.817Z,90.40
2018-12-18T17:39:12.273Z,90.50
2018-12-18T17:41:39.754Z,90.50
2018-12-18T17:44:07.215Z,90.50
2018-12-18T17:46:35.103Z,90.50
2018-12-18T17:49:02.612Z,90.50
2018-12-18T17:51:30.098Z,90.50
2018-12-18T17:53:58.390Z,90.50
2018-12-18T17:56:25.850Z,90.50
2018-12-18T17:58:53.314Z,90.50
2018-12-18T18:01:20.865Z,90.60
2018-12-18T18:03:48.317Z,90.60
2018-12-18T18:06:16.023Z,90.60
2018-12-18T18:08:43.901Z,90.60
